createdAt,value
2019-04-30T00:01:29.935Z,91.10
2019-04-30T00:04:00.991Z,91.32
2019-04-30T00:06:34.570Z,91.53
2019-04-30T00:09:01.545Z,91.68
2019-04-30T00:11:31.186Z,91.62
2019-04-30T00:14:00.660Z,91.60
2019-04-30T00:16:31.071Z,91.77
2019-04-30T00:19:01.438Z,91.80
2019-04-30T00:21:31.116Z,92.00
2019-04-30T00:24:05.355Z,92.09
2019-04-30T00:26:31.898Z,92.04
2019-04-30T00:29:01.418Z,92.03
2019-04-30T00:31:31.065Z,92.36
2019-04-30T00:34:01.463Z,92.40
2019-04-30T00:36:34.198Z,92.20
2019-04-30T00:39:02.130Z,92.04
2019-04-30T00:41:31.705Z,91.89
2019-04-30T00:44:01.277Z,91.80
2019-04-30T00:46:30.704Z,91.96
2019-04-30T00:49:09.340Z,91.97
2019-04-30T00:51:31.399Z,92.04
2019-04-30T00:54:00.943Z,92.06
2019-04-30T00:56:30.521Z,91.92
2019-04-30T00:59:02.404Z,91.91
2019-04-30T01:01:49.215Z,92.29
2019-04-30T01:04:24.663Z,92.45
2019-04-30T01:06:59.912Z,92.43
2019-04-30T01:09:25.936Z,92.42
2019-04-30T01:11:55.404Z,92.42
2019-04-30T01:14:28.320Z,92.37
2019-04-30T01:16:56.019Z,92.42
2019-04-30T01:19:30.031Z,92.20
2019-04-30T01:21:56.943Z,92.02
2019-04-30T01:24:31.597Z,91.97
2019-04-30T01:27:06.878Z,91.48
2019-04-30T01:29:41.486Z,91.55
2019-04-30T01:32:05.360Z,91.54
2019-04-30T01:34:35.053Z,91.58
2019-04-30T01:37:04.695Z,91.75
2019-04-30T01:39:34.139Z,91.65
2019-04-30T01:42:07.906Z,91.69
2019-04-30T01:44:36.514Z,92.03
2019-04-30T01:47:06.015Z,92.26
2019-04-30T01:49:41.940Z,92.17
2019-04-30T01:52:06.857Z,91.71
2019-04-30T01:54:36.292Z,91.69
2019-04-30T01:57:25.414Z,91.79
2019-04-30T02:02:43.794Z,91.93
2019-04-30T02:05:14.971Z,91.46
2019-04-30T02:07:46.045Z,91.51
2019-04-30T02:10:16.010Z,91.48
2019-04-30T02:12:45.510Z,91.40
2019-04-30T02:15:15.351Z,91.33
2019-04-30T02:17:46.475Z,91.38
2019-04-30T02:20:16.259Z,91.60
2019-04-30T02:22:45.854Z,91.97
2019-04-30T02:25:15.461Z,91.75
2019-04-30T02:27:44.913Z,91.66
2019-04-30T02:30:14.556Z,91.56
2019-04-30T02:32:44.421Z,91.81
2019-04-30T02:35:32.307Z,91.64
2019-04-30T02:38:20.231Z,91.91
2019-04-30T02:40:52.598Z,91.61
2019-04-30T02:43:24.225Z,91.22
2019-04-30T02:45:56.154Z,91.03
2019-04-30T02:48:29.454Z,91.36
2019-04-30T02:51:01.240Z,91.28
2019-04-30T02:53:53.094Z,91.28
2019-04-30T02:56:26.516Z,91.32
2019-04-30T02:58:55.408Z,91.16
2019-04-30T03:01:24.817Z,91.14
2019-04-30T03:03:54.413Z,91.27
2019-04-30T03:06:23.976Z,91.25
2019-04-30T03:08:53.527Z,91.54
2019-04-30T03:11:23.068Z,91.66
2019-04-30T03:13:52.507Z,91.71
2019-04-30T03:16:32.508Z,91.79
2019-04-30T03:19:03.543Z,91.62
2019-04-30T03:21:43.574Z,91.59
2019-04-30T03:24:13.252Z,91.71
2019-04-30T03:26:44.244Z,91.79
2019-04-30T03:29:13.702Z,91.59
2019-04-30T03:31:45.317Z,91.88
2019-04-30T03:34:24.287Z,91.77
2019-04-30T03:36:45.589Z,91.83
2019-04-30T03:39:15.231Z,91.67
2019-04-30T03:41:44.637Z,91.37
2019-04-30T03:44:21.548Z,91.41
2019-04-30T03:46:45.248Z,91.54
2019-04-30T03:49:14.676Z,91.46
2019-04-30T03:51:44.121Z,91.50
2019-04-30T03:54:13.562Z,91.38
2019-04-30T03:56:43.804Z,91.27
2019-04-30T03:59:13.484Z,91.41
2019-04-30T04:02:00.168Z,91.57
2019-04-30T04:04:31.375Z,91.88
2019-04-30T04:07:02.470Z,91.42
2019-04-30T04:12:20.401Z,91.35
2019-04-30T04:14:51.060Z,91.23
2019-04-30T04:17:21.873Z,91.14
2019-04-30T04:19:51.921Z,91.26
2019-04-30T04:22:23.161Z,91.36
2019-04-30T04:24:52.717Z,91.63
2019-04-30T04:27:22.159Z,91.84
2019-04-30T04:29:51.629Z,91.64
2019-04-30T04:32:24.304Z,91.27
2019-04-30T04:34:54.067Z,90.86
2019-04-30T04:37:25.012Z,91.02
2019-04-30T04:39:54.462Z,91.17
2019-04-30T04:42:25.407Z,91.28
2019-04-30T04:44:54.855Z,91.39
2019-04-30T04:47:24.264Z,91.45
2019-04-30T04:49:54.196Z,91.27
2019-04-30T04:52:23.698Z,91.37
2019-04-30T04:54:53.210Z,91.26
2019-04-30T04:57:23.310Z,90.90
2019-04-30T04:59:53.064Z,91.15
2019-04-30T05:02:36.079Z,91.31
2019-04-30T05:05:09.476Z,91.13
2019-04-30T05:07:39.901Z,90.69
2019-04-30T05:10:10.263Z,90.72
2019-04-30T05:12:39.988Z,90.66
2019-04-30T05:15:10.804Z,91.12
2019-04-30T05:17:40.223Z,91.19
2019-04-30T05:20:10.277Z,91.20
2019-04-30T05:22:39.698Z,90.65
2019-04-30T05:25:10.281Z,90.80
2019-04-30T05:27:39.685Z,90.94
2019-04-30T05:30:12.055Z,90.99
2019-04-30T05:32:40.822Z,90.92
2019-04-30T05:35:31.301Z,91.60
2019-04-30T05:38:00.688Z,91.09
2019-04-30T05:40:30.147Z,91.02
2019-04-30T05:43:00.391Z,91.14
2019-04-30T05:45:30.141Z,91.04
2019-04-30T05:47:59.579Z,90.98
2019-04-30T05:50:29.681Z,91.00
2019-04-30T05:52:59.319Z,91.03
2019-04-30T05:55:29.440Z,90.48
2019-04-30T05:58:01.569Z,89.92
2019-04-30T06:00:30.818Z,90.46
2019-04-30T06:03:00.327Z,90.72
2019-04-30T06:05:31.530Z,89.43
2019-04-30T06:08:01.044Z,89.93
2019-04-30T06:10:39.705Z,89.57
2019-04-30T06:13:16.762Z,89.57
2019-04-30T06:15:59.930Z,89.32
2019-04-30T06:18:29.405Z,89.25
2019-04-30T06:20:59.526Z,88.86
2019-04-30T06:23:29.461Z,88.25
2019-04-30T06:26:08.975Z,87.43
2019-04-30T06:28:31.566Z,86.09
2019-04-30T06:31:01.446Z,86.22
2019-04-30T06:33:31.484Z,85.70
2019-04-30T06:36:01.263Z,85.95
2019-04-30T06:38:30.869Z,86.50
2019-04-30T06:41:00.375Z,86.73
2019-04-30T06:43:30.646Z,86.18
2019-04-30T06:46:00.151Z,86.67
2019-04-30T06:48:30.229Z,86.75
2019-04-30T06:51:01.099Z,86.73
2019-04-30T06:53:30.541Z,86.78
2019-04-30T06:56:00.013Z,86.50
2019-04-30T06:58:29.502Z,83.76
2019-04-30T07:00:59.578Z,81.93
2019-04-30T07:03:29.217Z,80.15
2019-04-30T07:05:58.764Z,79.80
2019-04-30T07:08:54.673Z,82.46
2019-04-30T07:11:20.631Z,82.44
2019-04-30T07:13:57.754Z,84.26
2019-04-30T07:16:22.019Z,83.14
2019-04-30T07:18:51.577Z,81.96
2019-04-30T07:21:21.182Z,82.55
2019-04-30T07:23:50.664Z,80.67
2019-04-30T07:26:24.455Z,80.60
2019-04-30T07:28:55.316Z,80.37
2019-04-30T07:31:24.275Z,81.23
2019-04-30T07:33:54.144Z,81.65
2019-04-30T07:36:42.503Z,81.47
2019-04-30T07:38:57.025Z,79.66
2019-04-30T07:41:30.882Z,79.76
2019-04-30T07:43:59.394Z,80.51
2019-04-30T07:46:35.082Z,80.57
2019-04-30T07:49:01.764Z,81.54
2019-04-30T07:51:37.137Z,82.32
2019-04-30T07:54:02.437Z,81.65
2019-04-30T07:56:37.477Z,82.00
2019-04-30T07:59:03.174Z,81.85
2019-04-30T08:01:32.788Z,78.61
2019-04-30T08:04:03.855Z,77.27
2019-04-30T08:06:33.432Z,76.25
2019-04-30T08:09:04.669Z,76.51
2019-04-30T08:11:39.013Z,76.49
2019-04-30T08:14:06.557Z,78.94
2019-04-30T08:16:36.190Z,79.79
2019-04-30T08:19:05.753Z,79.30
2019-04-30T08:21:35.207Z,76.94
2019-04-30T08:24:04.706Z,78.73
2019-04-30T08:26:34.218Z,76.07
2019-04-30T08:29:03.817Z,75.42
2019-04-30T08:31:33.344Z,77.23
2019-04-30T08:34:02.832Z,78.18
2019-04-30T08:36:33.177Z,76.17
2019-04-30T08:39:02.902Z,78.50
2019-04-30T08:41:32.493Z,76.95
2019-04-30T08:44:01.937Z,74.60
2019-04-30T08:46:31.385Z,75.53
2019-04-30T08:49:01.066Z,76.39
2019-04-30T08:51:31.450Z,74.96
2019-04-30T08:54:01.279Z,76.79
2019-04-30T08:56:30.736Z,75.87
2019-04-30T08:59:00.222Z,74.30
2019-04-30T09:01:29.729Z,74.65
2019-04-30T09:03:59.803Z,74.87
2019-04-30T09:06:30.252Z,73.50
2019-04-30T09:09:00.567Z,74.40
2019-04-30T09:11:42.915Z,72.68
2019-04-30T09:14:01.266Z,70.71
2019-04-30T09:16:30.737Z,73.01
2019-04-30T09:19:00.187Z,70.97
2019-04-30T09:21:30.092Z,71.62
2019-04-30T09:23:59.674Z,71.64
2019-04-30T09:26:29.228Z,70.22
2019-04-30T09:28:59.341Z,67.28
2019-04-30T09:31:30.630Z,69.29
2019-04-30T09:34:00.931Z,67.81
2019-04-30T09:36:30.564Z,68.74
2019-04-30T09:39:01.720Z,70.67
2019-04-30T09:41:31.172Z,68.79
2019-04-30T09:44:00.617Z,63.67
2019-04-30T09:46:30.209Z,64.54
2019-04-30T09:49:00.742Z,65.78
2019-04-30T09:51:31.342Z,64.71
2019-04-30T09:54:03.629Z,67.05
2019-04-30T09:56:32.288Z,68.18
2019-04-30T09:59:01.768Z,71.22
2019-04-30T10:01:32.975Z,65.27
2019-04-30T10:04:02.868Z,64.05
2019-04-30T10:06:39.635Z,64.24
2019-04-30T10:09:05.361Z,63.24
2019-04-30T10:11:55.501Z,62.98
2019-04-30T10:14:25.113Z,60.02
2019-04-30T10:17:05.286Z,61.09
2019-04-30T10:19:34.793Z,59.34
2019-04-30T10:22:04.503Z,60.40
2019-04-30T10:24:39.204Z,61.80
2019-04-30T10:27:12.907Z,58.42
2019-04-30T10:29:41.218Z,54.65
2019-04-30T10:32:10.724Z,58.05
2019-04-30T10:34:40.353Z,54.02
2019-04-30T10:37:10.185Z,52.96
2019-04-30T10:39:43.091Z,54.67
2019-04-30T10:42:12.509Z,51.65
2019-04-30T10:44:41.959Z,56.48
2019-04-30T10:47:11.717Z,54.33
2019-04-30T10:49:41.216Z,58.22
2019-04-30T10:52:10.624Z,54.08
2019-04-30T10:54:40.942Z,49.72
2019-04-30T10:57:10.373Z,55.57
2019-04-30T10:59:40.684Z,56.78
2019-04-30T11:02:10.106Z,58.48
2019-04-30T11:04:39.700Z,60.26
2019-04-30T11:07:09.370Z,60.26
2019-04-30T11:09:39.392Z,64.28
2019-04-30T11:12:09.499Z,65.98
2019-04-30T11:14:39.340Z,68.48
2019-04-30T11:17:09.906Z,69.36
2019-04-30T11:19:39.927Z,67.50
2019-04-30T11:22:09.697Z,67.35
2019-04-30T11:24:54.029Z,63.71
2019-04-30T11:27:11.514Z,64.95
2019-04-30T11:29:41.838Z,67.49
2019-04-30T11:32:13.514Z,65.98
2019-04-30T11:34:43.146Z,68.35
2019-04-30T11:37:12.614Z,68.10
2019-04-30T11:39:42.331Z,68.99
2019-04-30T11:42:11.744Z,67.69
2019-04-30T11:44:44.194Z,73.16
2019-04-30T11:47:16.714Z,69.31
2019-04-30T11:49:46.161Z,69.89
2019-04-30T11:52:15.892Z,69.66
2019-04-30T11:54:51.434Z,68.75
2019-04-30T11:57:18.747Z,68.49
2019-04-30T11:59:48.382Z,69.14
2019-04-30T12:02:22.973Z,67.39
2019-04-30T12:04:52.427Z,68.39
2019-04-30T12:07:23.477Z,65.93
2019-04-30T12:10:03.500Z,65.15
2019-04-30T12:12:32.937Z,66.40
2019-04-30T12:15:02.885Z,60.41
2019-04-30T12:17:32.366Z,61.15
2019-04-30T12:20:01.804Z,63.71
2019-04-30T12:22:31.474Z,59.87
2019-04-30T12:25:03.245Z,60.11
2019-04-30T12:27:32.451Z,61.57
2019-04-30T12:30:02.001Z,61.38
2019-04-30T12:32:31.395Z,56.43
2019-04-30T12:35:01.028Z,61.42
2019-04-30T12:37:30.764Z,58.77
2019-04-30T12:40:00.213Z,64.24
2019-04-30T12:42:30.101Z,60.98
2019-04-30T12:44:59.657Z,59.89
2019-04-30T12:47:30.876Z,63.56
2019-04-30T12:50:05.125Z,60.13
2019-04-30T12:52:42.547Z,63.73
2019-04-30T12:55:25.810Z,65.13
2019-04-30T12:57:59.651Z,67.38
2019-04-30T13:00:29.417Z,60.84
2019-04-30T13:03:00.370Z,55.68
2019-04-30T13:05:30.077Z,59.82
2019-04-30T13:08:01.142Z,66.08
2019-04-30T13:10:31.750Z,67.82
2019-04-30T13:13:04.035Z,62.98
2019-04-30T13:15:34.856Z,62.24
2019-04-30T13:18:04.384Z,62.88
2019-04-30T13:20:34.012Z,59.55
2019-04-30T13:23:03.499Z,64.37
2019-04-30T13:25:35.481Z,65.07
2019-04-30T13:28:06.058Z,66.01
2019-04-30T13:30:35.847Z,66.30
2019-04-30T13:33:20.251Z,65.35
2019-04-30T13:35:49.322Z,65.86
2019-04-30T13:38:20.671Z,66.00
2019-04-30T13:40:54.542Z,66.17
2019-04-30T13:43:42.587Z,68.25
2019-04-30T13:46:12.123Z,69.27
2019-04-30T13:48:43.382Z,68.09
2019-04-30T13:51:12.843Z,63.64
2019-04-30T13:53:42.274Z,61.45
2019-04-30T13:56:11.874Z,61.10
2019-04-30T13:58:41.324Z,63.56
2019-04-30T14:01:10.772Z,65.64
2019-04-30T14:03:42.201Z,69.49
2019-04-30T14:06:13.468Z,69.79
2019-04-30T14:08:48.800Z,67.21
2019-04-30T14:11:18.990Z,67.97
2019-04-30T14:13:48.613Z,65.35
2019-04-30T14:16:18.075Z,69.71
2019-04-30T14:18:48.780Z,70.38
2019-04-30T14:21:19.397Z,69.91
2019-04-30T14:23:49.772Z,70.31
2019-04-30T14:26:19.586Z,71.11
2019-04-30T14:28:49.133Z,69.27
2019-04-30T14:31:18.718Z,67.23
2019-04-30T14:33:49.721Z,67.12
2019-04-30T14:36:20.805Z,71.38
2019-04-30T14:38:50.257Z,70.75
2019-04-30T14:41:20.295Z,70.75
2019-04-30T14:43:54.971Z,71.54
2019-04-30T14:46:42.013Z,69.16
2019-04-30T14:49:15.429Z,69.07
2019-04-30T14:51:44.664Z,70.33
2019-04-30T14:54:15.755Z,70.34
2019-04-30T14:57:03.881Z,72.45
2019-04-30T14:59:39.025Z,73.64
2019-04-30T15:02:26.609Z,72.09
2019-04-30T15:04:56.072Z,68.40
2019-04-30T15:07:25.787Z,70.64
2019-04-30T15:09:55.402Z,70.95
2019-04-30T15:12:24.948Z,73.15
2019-04-30T15:14:54.476Z,71.20
2019-04-30T15:17:24.029Z,73.36
2019-04-30T15:19:54.561Z,73.66
2019-04-30T15:22:24.223Z,72.57
2019-04-30T15:24:53.666Z,73.16
2019-04-30T15:27:23.117Z,72.64
2019-04-30T15:29:57.267Z,71.97
2019-04-30T15:32:24.058Z,72.96
2019-04-30T15:34:53.547Z,73.56
2019-04-30T15:37:23.949Z,72.32
2019-04-30T15:39:53.581Z,70.84
2019-04-30T15:42:23.434Z,70.15
2019-04-30T15:44:53.170Z,73.96
2019-04-30T15:47:23.326Z,74.48
2019-04-30T15:49:52.785Z,74.37
2019-04-30T15:52:22.241Z,75.38
2019-04-30T15:54:51.751Z,76.24
2019-04-30T15:57:21.194Z,76.51
2019-04-30T15:59:50.767Z,76.81
2019-04-30T16:02:24.916Z,75.25
2019-04-30T16:05:05.118Z,74.44
2019-04-30T16:07:36.362Z,75.26
2019-04-30T16:10:09.309Z,76.20
2019-04-30T16:12:55.926Z,76.08
2019-04-30T16:15:26.902Z,77.73
2019-04-30T16:17:59.510Z,78.25
2019-04-30T16:20:30.667Z,77.73
2019-04-30T16:23:00.126Z,78.02
2019-04-30T16:25:30.324Z,77.70
2019-04-30T16:27:59.876Z,78.03
2019-04-30T16:30:29.417Z,79.53
2019-04-30T16:32:59.636Z,78.16
2019-04-30T16:35:29.601Z,78.94
2019-04-30T16:37:59.519Z,79.38
2019-04-30T16:40:29.181Z,80.21
2019-04-30T16:42:58.640Z,79.99
2019-04-30T16:45:29.053Z,80.47
2019-04-30T16:47:58.664Z,79.98
2019-04-30T16:50:29.926Z,79.17
2019-04-30T16:52:59.542Z,78.74
2019-04-30T16:55:28.974Z,80.52
2019-04-30T16:57:59.676Z,80.75
2019-04-30T17:00:30.883Z,79.90
2019-04-30T17:03:02.008Z,81.19
2019-04-30T17:05:42.019Z,81.63
2019-04-30T17:08:16.123Z,82.08
2019-04-30T17:10:53.450Z,81.77
2019-04-30T17:13:33.448Z,81.69
2019-04-30T17:16:04.501Z,81.99
2019-04-30T17:18:34.005Z,83.10
2019-04-30T17:21:03.522Z,83.22
2019-04-30T17:23:32.960Z,83.17
2019-04-30T17:26:02.602Z,83.57
2019-04-30T17:28:32.062Z,83.63
2019-04-30T17:31:01.556Z,83.73
2019-04-30T17:33:31.027Z,83.57
2019-04-30T17:36:00.666Z,83.21
2019-04-30T17:38:31.585Z,83.10
2019-04-30T17:41:01.245Z,83.46
2019-04-30T17:43:30.729Z,82.59
2019-04-30T17:46:04.121Z,82.41
2019-04-30T17:48:32.795Z,83.04
2019-04-30T17:51:02.292Z,83.19
2019-04-30T17:53:33.323Z,83.72
2019-04-30T17:56:02.768Z,83.90
2019-04-30T17:58:32.343Z,84.15
2019-04-30T18:01:03.277Z,84.78
2019-04-30T18:03:32.807Z,84.55
2019-04-30T18:06:02.358Z,83.86
2019-04-30T18:08:31.800Z,83.95
2019-04-30T18:11:01.212Z,84.55
2019-04-30T18:13:30.699Z,84.12
2019-04-30T18:16:00.518Z,83.86
2019-04-30T18:18:34.498Z,83.66
2019-04-30T18:21:05.688Z,83.87
2019-04-30T18:23:39.535Z,84.55
2019-04-30T18:26:10.749Z,84.41
2019-04-30T18:28:40.341Z,84.05
2019-04-30T18:31:09.819Z,84.25
2019-04-30T18:33:39.280Z,83.50
2019-04-30T18:36:09.600Z,82.91
2019-04-30T18:38:39.273Z,82.62
2019-04-30T18:41:09.454Z,82.49
2019-04-30T18:43:40.547Z,82.70
2019-04-30T18:46:10.798Z,83.05
2019-04-30T18:48:40.546Z,82.81
2019-04-30T18:51:29.907Z,83.35
2019-04-30T18:53:43.215Z,83.66
2019-04-30T18:56:14.871Z,83.27
2019-04-30T18:58:43.815Z,83.83
2019-04-30T19:01:15.058Z,82.86
2019-04-30T19:03:44.572Z,83.01
2019-04-30T19:06:23.104Z,82.65
2019-04-30T19:08:48.517Z,82.93
2019-04-30T19:11:20.463Z,83.21
2019-04-30T19:14:00.000Z,83.13
2019-04-30T19:16:32.805Z,82.95
2019-04-30T19:19:12.686Z,82.73
2019-04-30T19:21:41.316Z,82.36
2019-04-30T19:24:10.763Z,83.34
2019-04-30T19:26:40.205Z,82.96
2019-04-30T19:29:10.055Z,83.12
2019-04-30T19:31:39.559Z,82.46
2019-04-30T19:34:09.735Z,82.26
2019-04-30T19:36:40.730Z,82.25
2019-04-30T19:39:11.913Z,82.35
2019-04-30T19:41:41.357Z,82.66
2019-04-30T19:44:11.186Z,82.08
2019-04-30T19:46:40.849Z,82.39
2019-04-30T19:49:10.384Z,82.35
2019-04-30T19:51:40.270Z,82.37
2019-04-30T19:54:11.399Z,81.84
2019-04-30T19:56:41.232Z,83.23
2019-04-30T19:59:10.958Z,82.37
2019-04-30T20:01:40.589Z,82.20
2019-04-30T20:04:10.476Z,82.66
2019-04-30T20:06:39.960Z,81.92
2019-04-30T20:09:09.627Z,81.99
2019-04-30T20:11:39.834Z,81.70
2019-04-30T20:14:10.404Z,81.52
2019-04-30T20:16:40.381Z,81.61
2019-04-30T20:19:09.999Z,81.63
2019-04-30T20:21:50.401Z,81.62
2019-04-30T20:24:10.833Z,81.83
2019-04-30T20:26:40.304Z,81.77
2019-04-30T20:29:09.763Z,81.87
2019-04-30T20:31:39.368Z,81.86
2019-04-30T20:34:09.259Z,82.04
2019-04-30T20:36:38.944Z,82.94
2019-04-30T20:39:11.001Z,82.51
2019-04-30T20:41:41.976Z,82.84
2019-04-30T20:44:11.676Z,82.12
2019-04-30T20:46:41.413Z,82.18
2019-04-30T20:49:10.913Z,81.93
2019-04-30T20:51:52.710Z,81.88
2019-04-30T20:54:11.579Z,81.76
2019-04-30T20:56:41.024Z,81.35
2019-04-30T20:59:10.978Z,81.83
2019-04-30T21:01:40.439Z,82.04
2019-04-30T21:04:10.009Z,82.24
2019-04-30T21:06:39.636Z,82.50
2019-04-30T21:09:11.913Z,82.04
2019-04-30T21:11:41.495Z,82.08
2019-04-30T21:14:11.006Z,81.89
2019-04-30T21:16:40.615Z,82.24
2019-04-30T21:19:10.232Z,81.22
2019-04-30T21:21:39.748Z,81.37
2019-04-30T21:24:09.606Z,81.98
2019-04-30T21:26:40.942Z,82.28
2019-04-30T21:29:15.356Z,82.06
2019-04-30T21:31:52.242Z,81.70
2019-04-30T21:34:26.072Z,81.68
2019-04-30T21:36:55.605Z,81.75
2019-04-30T21:39:25.097Z,81.74
2019-04-30T21:41:54.540Z,82.42
2019-04-30T21:44:23.988Z,82.54
2019-04-30T21:46:53.437Z,82.20
2019-04-30T21:49:22.882Z,81.82
2019-04-30T21:51:52.412Z,81.93
2019-04-30T21:54:21.843Z,81.91
2019-04-30T21:56:51.302Z,81.93
2019-04-30T21:59:24.462Z,81.92
2019-04-30T22:01:51.904Z,82.16
2019-04-30T22:04:21.341Z,82.32
2019-04-30T22:06:50.950Z,81.67
2019-04-30T22:09:21.079Z,81.94
2019-04-30T22:11:50.746Z,82.00
2019-04-30T22:14:20.313Z,81.59
2019-04-30T22:16:49.755Z,81.94
2019-04-30T22:19:19.229Z,81.91
2019-04-30T22:21:50.278Z,82.08
2019-04-30T22:24:19.698Z,81.84
2019-04-30T22:26:49.131Z,81.93
2019-04-30T22:29:19.137Z,81.98
2019-04-30T22:31:49.431Z,82.23
2019-04-30T22:34:18.937Z,82.49
2019-04-30T22:36:49.015Z,82.55
2019-04-30T22:39:20.633Z,82.65
2019-04-30T22:41:50.139Z,82.70
2019-04-30T22:44:19.551Z,82.99
2019-04-30T22:46:49.282Z,82.95
2019-04-30T22:49:18.815Z,82.47
2019-04-30T22:51:48.258Z,82.82
2019-04-30T22:54:17.730Z,81.96
2019-04-30T22:56:47.174Z,81.99
2019-04-30T22:59:18.187Z,81.72
2019-04-30T23:01:49.338Z,81.85
2019-04-30T23:04:20.487Z,82.40
2019-04-30T23:06:49.928Z,82.79
2019-04-30T23:09:19.542Z,82.64
2019-04-30T23:11:49.255Z,82.01
2019-04-30T23:14:18.697Z,82.24
2019-04-30T23:16:48.202Z,82.43
2019-04-30T23:19:17.639Z,82.36
2019-04-30T23:21:47.088Z,81.89
2019-04-30T23:24:16.472Z,81.56
2019-04-30T23:26:46.035Z,81.90
2019-04-30T23:29:15.428Z,81.31
2019-04-30T23:31:44.919Z,81.69
2019-04-30T23:34:18.169Z,81.89
2019-04-30T23:36:45.462Z,81.83
2019-04-30T23:39:15.370Z,81.62
2019-04-30T23:41:44.827Z,82.16
2019-04-30T23:44:14.340Z,82.17
2019-04-30T23:46:43.804Z,82.04
2019-04-30T23:49:13.384Z,82.64
2019-04-30T23:51:42.931Z,81.99
2019-04-30T23:54:12.337Z,82.32
2019-04-30T23:56:41.772Z,81.99
2019-04-30T23:59:11.241Z,81.93
